Terminal Aerodrome Forecast
Issued by NWS Duluth, MN

Home | Current Version | Previous Version | Text Only | Print | Product List | Glossary On
Versions: 1 2 3 4 5 6 7 8 9 10 11 12 13 14 15 16 17 18 19 20 21 22 23 24 25 26 27 28 29 30 31 32 33
000
FTUS43 KDLH 281400 AAA
TAFINL
TAF AMD
KINL 281415Z 2814/2912 36008KT 6SM BR OVC005
      TEMPO 2814/2815 OVC007
     FM281500 01010KT P6SM VCSH OVC009
     FM281800 01012G19KT P6SM -RA OVC020
     FM290400 05009KT P6SM OVC018
     FM290900 08008KT P6SM BKN024=

USA.gov is the U.S. government's official web portal to all federal, state and local government web resources and services.